sensor_id;sensor_type;location;lat;lon;timestamp;temperature;humidity
12957;DHT22;6543;48.836;10.092;2023-04-12T00:00:44;6.30;99.90
12957;DHT22;6543;48.836;10.092;2023-04-12T00:03:12;6.60;99.90
12957;DHT22;6543;48.836;10.092;2023-04-12T00:05:45;8.30;99.90
12957;DHT22;6543;48.836;10.092;2023-04-12T00:08:13;6.20;99.90
12957;DHT22;6543;48.836;10.092;2023-04-12T00:10:40;7.30;99.90
12957;DHT22;6543;48.836;10.092;2023-04-12T00:13:07;6.10;99.90
12957;DHT22;6543;48.836;10.092;2023-04-12T00:15:34;8.50;99.90
12957;DHT22;6543;48.836;10.092;2023-04-12T00:18:01;7.40;99.90
12957;DHT22;6543;48.836;10.092;2023-04-12T00:20:30;6.30;99.90
12957;DHT22;6543;48.836;10.092;2023-04-12T00:22:56;6.10;99.90
12957;DHT22;6543;48.836;10.092;2023-04-12T00:25:23;6.20;99.90
12957;DHT22;6543;48.836;10.092;2023-04-12T00:27:51;6.30;99.90
12957;DHT22;6543;48.836;10.092;2023-04-12T00:30:18;6.30;99.90
12957;DHT22;6543;48.836;10.092;2023-04-12T00:32:45;6.70;99.90
12957;DHT22;6543;48.836;10.092;2023-04-12T00:35:12;6.50;99.90
12957;DHT22;6543;48.836;10.092;2023-04-12T00:37:41;7.30;99.90
12957;DHT22;6543;48.836;10.092;2023-04-12T00:40:08;8.40;99.90
12957;DHT22;6543;48.836;10.092;2023-04-12T00:42:36;6.40;99.90
12957;DHT22;6543;48.836;10.092;2023-04-12T00:45:04;7.10;99.90
12957;DHT22;6543;48.836;10.092;2023-04-12T00:47:34;6.50;99.90
12957;DHT22;6543;48.836;10.092;2023-04-12T00:50:01;6.60;99.90
12957;DHT22;6543;48.836;10.092;2023-04-12T00:52:29;8.60;99.90
12957;DHT22;6543;48.836;10.092;2023-04-12T00:55:00;7.10;99.90
12957;DHT22;6543;48.836;10.092;2023-04-12T00:57:27;7.40;99.90
12957;DHT22;6543;48.836;10.092;2023-04-12T00:59:56;7.80;99.90
12957;DHT22;6543;48.836;10.092;2023-04-12T01:02:23;7.70;99.90
12957;DHT22;6543;48.836;10.092;2023-04-12T01:04:51;9.20;99.90
12957;DHT22;6543;48.836;10.092;2023-04-12T01:07:24;8.00;99.90
12957;DHT22;6543;48.836;10.092;2023-04-12T01:10:03;7.70;99.90
12957;DHT22;6543;48.836;10.092;2023-04-12T01:12:39;7.80;99.90
12957;DHT22;6543;48.836;10.092;2023-04-12T01:15:10;8.50;99.90
12957;DHT22;6543;48.836;10.092;2023-04-12T01:17:42;7.50;99.90
12957;DHT22;6543;48.836;10.092;2023-04-12T01:20:16;7.40;99.90
12957;DHT22;6543;48.836;10.092;2023-04-12T01:23:13;7.40;99.90
12957;DHT22;6543;48.836;10.092;2023-04-12T01:25:56;7.40;99.90
12957;DHT22;6543;48.836;10.092;2023-04-12T01:28:32;7.50;99.90
12957;DHT22;6543;48.836;10.092;2023-04-12T01:31:01;7.40;99.90
12957;DHT22;6543;48.836;10.092;2023-04-12T01:33:29;7.40;99.90
12957;DHT22;6543;48.836;10.092;2023-04-12T01:35:58;7.30;99.90
12957;DHT22;6543;48.836;10.092;2023-04-12T01:38:26;8.40;99.90
12957;DHT22;6543;48.836;10.092;2023-04-12T01:40:53;7.90;99.90
12957;DHT22;6543;48.836;10.092;2023-04-12T01:43:21;7.00;99.90
12957;DHT22;6543;48.836;10.092;2023-04-12T01:45:49;7.20;99.90
12957;DHT22;6543;48.836;10.092;2023-04-12T01:48:16;7.20;99.90
12957;DHT22;6543;48.836;10.092;2023-04-12T01:50:50;7.10;99.90
12957;DHT22;6543;48.836;10.092;2023-04-12T01:53:26;7.10;99.90
12957;DHT22;6543;48.836;10.092;2023-04-12T01:55:58;8.50;99.90
12957;DHT22;6543;48.836;10.092;2023-04-12T01:58:25;7.80;99.90
12957;DHT22;6543;48.836;10.092;2023-04-12T02:00:56;8.30;99.90
12957;DHT22;6543;48.836;10.092;2023-04-12T02:03:25;7.00;99.90
12957;DHT22;6543;48.836;10.092;2023-04-12T02:05:55;7.00;99.90
12957;DHT22;6543;48.836;10.092;2023-04-12T02:08:23;7.00;99.90
12957;DHT22;6543;48.836;10.092;2023-04-12T02:10:50;8.20;99.90
12957;DHT22;6543;48.836;10.092;2023-04-12T02:13:17;7.00;99.90
12957;DHT22;6543;48.836;10.092;2023-04-12T02:15:44;7.00;99.90
12957;DHT22;6543;48.836;10.092;2023-04-12T02:18:12;7.00;99.90
12957;DHT22;6543;48.836;10.092;2023-04-12T02:20:41;7.00;99.90
12957;DHT22;6543;48.836;10.092;2023-04-12T02:23:09;7.00;99.90
12957;DHT22;6543;48.836;10.092;2023-04-12T02:25:36;7.00;99.90
12957;DHT22;6543;48.836;10.092;2023-04-12T02:28:04;7.20;99.90
12957;DHT22;6543;48.836;10.092;2023-04-12T02:30:31;6.90;99.90
12957;DHT22;6543;48.836;10.092;2023-04-12T02:32:58;7.70;99.90
12957;DHT22;6543;48.836;10.092;2023-04-12T02:35:30;6.90;99.90
12957;DHT22;6543;48.836;10.092;2023-04-12T02:37:57;6.80;99.90
12957;DHT22;6543;48.836;10.092;2023-04-12T02:40:24;6.80;99.90
12957;DHT22;6543;48.836;10.092;2023-04-12T02:42:51;6.80;99.90
12957;DHT22;6543;48.836;10.092;2023-04-12T02:45:18;6.80;99.90
12957;DHT22;6543;48.836;10.092;2023-04-12T02:47:45;6.80;99.90
12957;DHT22;6543;48.836;10.092;2023-04-12T02:50:12;6.80;99.90
12957;DHT22;6543;48.836;10.092;2023-04-12T02:52:40;6.80;99.90
12957;DHT22;6543;48.836;10.092;2023-04-12T02:55:07;6.70;99.90
12957;DHT22;6543;48.836;10.092;2023-04-12T02:57:34;6.70;99.90
12957;DHT22;6543;48.836;10.092;2023-04-12T03:00:02;6.70;99.90
12957;DHT22;6543;48.836;10.092;2023-04-12T03:02:33;6.70;99.90
12957;DHT22;6543;48.836;10.092;2023-04-12T03:05:00;6.60;99.90
12957;DHT22;6543;48.836;10.092;2023-04-12T03:07:29;6.60;99.90
12957;DHT22;6543;48.836;10.092;2023-04-12T03:09:58;6.60;99.90
12957;DHT22;6543;48.836;10.092;2023-04-12T03:12:24;6.50;99.90
12957;DHT22;6543;48.836;10.092;2023-04-12T03:14:51;6.50;99.90
12957;DHT22;6543;48.836;10.092;2023-04-12T03:17:18;6.50;99.90
12957;DHT22;6543;48.836;10.092;2023-04-12T03:19:45;6.50;99.90
12957;DHT22;6543;48.836;10.092;2023-04-12T03:22:12;6.40;99.90
12957;DHT22;6543;48.836;10.092;2023-04-12T03:24:38;6.40;99.90
12957;DHT22;6543;48.836;10.092;2023-04-12T03:27:08;6.40;99.90
12957;DHT22;6543;48.836;10.092;2023-04-12T03:29:35;6.50;99.90
12957;DHT22;6543;48.836;10.092;2023-04-12T03:32:02;6.40;99.90
12957;DHT22;6543;48.836;10.092;2023-04-12T03:34:29;6.40;99.90
12957;DHT22;6543;48.836;10.092;2023-04-12T03:36:57;6.30;99.90
12957;DHT22;6543;48.836;10.092;2023-04-12T03:39:24;6.30;99.90
12957;DHT22;6543;48.836;10.092;2023-04-12T03:41:51;6.30;99.90
12957;DHT22;6543;48.836;10.092;2023-04-12T03:44:19;6.30;99.90
12957;DHT22;6543;48.836;10.092;2023-04-12T03:46:47;6.30;99.90
12957;DHT22;6543;48.836;10.092;2023-04-12T03:49:14;6.30;99.90
12957;DHT22;6543;48.836;10.092;2023-04-12T03:51:41;6.30;99.90
12957;DHT22;6543;48.836;10.092;2023-04-12T03:54:08;6.30;99.90
12957;DHT22;6543;48.836;10.092;2023-04-12T03:56:35;6.30;99.90
12957;DHT22;6543;48.836;10.092;2023-04-12T03:59:03;6.30;99.90
12957;DHT22;6543;48.836;10.092;2023-04-12T04:01:32;6.30;99.90
12957;DHT22;6543;48.836;10.092;2023-04-12T04:03:59;6.20;99.90
12957;DHT22;6543;48.836;10.092;2023-04-12T04:06:26;6.20;99.90
12957;DHT22;6543;48.836;10.092;2023-04-12T04:08:54;6.20;99.90
12957;DHT22;6543;48.836;10.092;2023-04-12T04:11:21;6.30;99.90
12957;DHT22;6543;48.836;10.092;2023-04-12T04:13:48;6.20;99.90
12957;DHT22;6543;48.836;10.092;2023-04-12T04:16:15;6.20;99.90
12957;DHT22;6543;48.836;10.092;2023-04-12T04:18:43;6.30;99.90
12957;DHT22;6543;48.836;10.092;2023-04-12T04:21:10;6.30;99.90
12957;DHT22;6543;48.836;10.092;2023-04-12T04:23:38;6.30;99.90
12957;DHT22;6543;48.836;10.092;2023-04-12T04:26:09;6.30;99.90
12957;DHT22;6543;48.836;10.092;2023-04-12T04:28:37;6.30;99.90
12957;DHT22;6543;48.836;10.092;2023-04-12T04:31:04;6.30;99.90
12957;DHT22;6543;48.836;10.092;2023-04-12T04:33:31;6.30;99.90
12957;DHT22;6543;48.836;10.092;2023-04-12T04:36:00;6.40;99.90
12957;DHT22;6543;48.836;10.092;2023-04-12T04:38:28;6.30;99.90
12957;DHT22;6543;48.836;10.092;2023-04-12T04:40:57;6.30;99.90
12957;DHT22;6543;48.836;10.092;2023-04-12T04:43:24;6.30;99.90
12957;DHT22;6543;48.836;10.092;2023-04-12T04:45:55;6.40;99.90
12957;DHT22;6543;48.836;10.092;2023-04-12T04:48:22;6.40;99.90
12957;DHT22;6543;48.836;10.092;2023-04-12T04:50:49;6.40;99.90
12957;DHT22;6543;48.836;10.092;2023-04-12T04:53:20;6.40;99.90
12957;DHT22;6543;48.836;10.092;2023-04-12T04:55:47;6.40;99.90
12957;DHT22;6543;48.836;10.092;2023-04-12T04:58:14;6.40;99.90
12957;DHT22;6543;48.836;10.092;2023-04-12T05:00:42;6.50;99.90
12957;DHT22;6543;48.836;10.092;2023-04-12T05:03:10;6.50;99.90
12957;DHT22;6543;48.836;10.092;2023-04-12T05:05:37;6.50;99.90
12957;DHT22;6543;48.836;10.092;2023-04-12T05:08:04;6.50;99.90
12957;DHT22;6543;48.836;10.092;2023-04-12T05:10:32;6.50;99.90
12957;DHT22;6543;48.836;10.092;2023-04-12T05:12:59;6.50;99.90
12957;DHT22;6543;48.836;10.092;2023-04-12T05:15:26;6.50;99.90
12957;DHT22;6543;48.836;10.092;2023-04-12T05:17:53;6.50;99.90
12957;DHT22;6543;48.836;10.092;2023-04-12T05:20:20;6.60;99.90
12957;DHT22;6543;48.836;10.092;2023-04-12T05:22:47;6.60;99.90
12957;DHT22;6543;48.836;10.092;2023-04-12T05:25:14;6.60;99.90
12957;DHT22;6543;48.836;10.092;2023-04-12T05:27:43;6.80;99.90
12957;DHT22;6543;48.836;10.092;2023-04-12T05:47:26;6.90;99.90
12957;DHT22;6543;48.836;10.092;2023-04-12T05:49:53;7.00;99.90
12957;DHT22;6543;48.836;10.092;2023-04-12T05:52:20;6.90;99.90
12957;DHT22;6543;48.836;10.092;2023-04-12T05:54:47;6.90;99.90
12957;DHT22;6543;48.836;10.092;2023-04-12T05:57:14;6.90;99.90
12957;DHT22;6543;48.836;10.092;2023-04-12T05:59:42;7.00;99.90
12957;DHT22;6543;48.836;10.092;2023-04-12T06:02:11;7.00;99.90
12957;DHT22;6543;48.836;10.092;2023-04-12T06:04:41;7.00;99.90
12957;DHT22;6543;48.836;10.092;2023-04-12T06:07:08;7.00;99.90
12957;DHT22;6543;48.836;10.092;2023-04-12T06:09:35;7.10;99.90
12957;DHT22;6543;48.836;10.092;2023-04-12T06:12:02;7.10;99.90
12957;DHT22;6543;48.836;10.092;2023-04-12T06:14:29;7.10;99.90
12957;DHT22;6543;48.836;10.092;2023-04-12T06:16:56;7.10;99.90
12957;DHT22;6543;48.836;10.092;2023-04-12T06:19:25;7.10;99.90
12957;DHT22;6543;48.836;10.092;2023-04-12T06:21:51;7.20;99.90
12957;DHT22;6543;48.836;10.092;2023-04-12T06:24:18;7.20;99.90
12957;DHT22;6543;48.836;10.092;2023-04-12T06:26:45;7.20;99.90
12957;DHT22;6543;48.836;10.092;2023-04-12T06:29:12;7.30;99.90
12957;DHT22;6543;48.836;10.092;2023-04-12T06:31:39;7.30;99.90
12957;DHT22;6543;48.836;10.092;2023-04-12T06:34:06;7.30;99.90
12957;DHT22;6543;48.836;10.092;2023-04-12T06:36:35;7.30;99.90
12957;DHT22;6543;48.836;10.092;2023-04-12T06:39:05;7.40;99.90
12957;DHT22;6543;48.836;10.092;2023-04-12T06:41:36;7.40;99.90
12957;DHT22;6543;48.836;10.092;2023-04-12T06:44:04;7.40;99.90
12957;DHT22;6543;48.836;10.092;2023-04-12T06:46:31;7.40;99.90
12957;DHT22;6543;48.836;10.092;2023-04-12T06:48:58;7.40;99.90
12957;DHT22;6543;48.836;10.092;2023-04-12T06:51:25;7.50;99.90
12957;DHT22;6543;48.836;10.092;2023-04-12T06:53:54;7.50;99.90
12957;DHT22;6543;48.836;10.092;2023-04-12T06:56:22;10.60;99.90
12957;DHT22;6543;48.836;10.092;2023-04-12T06:58:49;7.60;99.90
12957;DHT22;6543;48.836;10.092;2023-04-12T07:01:16;8.20;99.90
12957;DHT22;6543;48.836;10.092;2023-04-12T07:03:43;7.40;99.90
12957;DHT22;6543;48.836;10.092;2023-04-12T07:06:10;5.90;99.90
12957;DHT22;6543;48.836;10.092;2023-04-12T07:08:37;7.50;99.90
12957;DHT22;6543;48.836;10.092;2023-04-12T07:11:06;7.50;99.90
12957;DHT22;6543;48.836;10.092;2023-04-12T07:13:33;8.40;99.90
12957;DHT22;6543;48.836;10.092;2023-04-12T07:16:01;7.50;99.90
12957;DHT22;6543;48.836;10.092;2023-04-12T07:18:29;7.70;99.90
12957;DHT22;6543;48.836;10.092;2023-04-12T07:20:57;7.50;99.90
12957;DHT22;6543;48.836;10.092;2023-04-12T07:23:24;9.50;99.90
12957;DHT22;6543;48.836;10.092;2023-04-12T07:25:51;9.30;99.90
12957;DHT22;6543;48.836;10.092;2023-04-12T07:28:20;7.40;99.90
12957;DHT22;6543;48.836;10.092;2023-04-12T07:30:47;7.70;99.90
12957;DHT22;6543;48.836;10.092;2023-04-12T07:33:14;9.20;99.90
12957;DHT22;6543;48.836;10.092;2023-04-12T07:35:42;8.80;99.90
12957;DHT22;6543;48.836;10.092;2023-04-12T07:38:09;7.50;99.90
12957;DHT22;6543;48.836;10.092;2023-04-12T07:40:36;5.70;99.90
12957;DHT22;6543;48.836;10.092;2023-04-12T07:43:04;7.60;99.90
12957;DHT22;6543;48.836;10.092;2023-04-12T07:45:35;7.90;99.90
12957;DHT22;6543;48.836;10.092;2023-04-12T07:48:02;7.80;99.90
12957;DHT22;6543;48.836;10.092;2023-04-12T07:50:30;7.60;99.90
12957;DHT22;6543;48.836;10.092;2023-04-12T07:53:15;8.00;99.90
12957;DHT22;6543;48.836;10.092;2023-04-12T07:55:43;7.70;99.90
12957;DHT22;6543;48.836;10.092;2023-04-12T07:58:11;8.00;99.90
12957;DHT22;6543;48.836;10.092;2023-04-12T08:00:40;7.00;99.90
12957;DHT22;6543;48.836;10.092;2023-04-12T08:03:07;7.80;99.90
12957;DHT22;6543;48.836;10.092;2023-04-12T08:05:34;8.00;99.90
12957;DHT22;6543;48.836;10.092;2023-04-12T08:08:02;8.60;99.90
12957;DHT22;6543;48.836;10.092;2023-04-12T08:10:29;7.90;99.90
12957;DHT22;6543;48.836;10.092;2023-04-12T08:12:56;7.90;99.90
12957;DHT22;6543;48.836;10.092;2023-04-12T08:15:24;8.00;99.90
12957;DHT22;6543;48.836;10.092;2023-04-12T08:17:52;9.70;99.90
12957;DHT22;6543;48.836;10.092;2023-04-12T08:20:19;8.10;99.90
12957;DHT22;6543;48.836;10.092;2023-04-12T08:22:47;8.10;99.90
12957;DHT22;6543;48.836;10.092;2023-04-12T08:25:14;8.10;99.90
12957;DHT22;6543;48.836;10.092;2023-04-12T08:27:42;8.10;99.90
12957;DHT22;6543;48.836;10.092;2023-04-12T08:30:10;8.20;99.90
12957;DHT22;6543;48.836;10.092;2023-04-12T08:32:38;8.20;99.90
12957;DHT22;6543;48.836;10.092;2023-04-12T08:35:08;8.30;99.90
12957;DHT22;6543;48.836;10.092;2023-04-12T08:37:36;8.40;99.90
12957;DHT22;6543;48.836;10.092;2023-04-12T08:40:05;8.40;99.90
12957;DHT22;6543;48.836;10.092;2023-04-12T08:42:33;8.50;99.90
12957;DHT22;6543;48.836;10.092;2023-04-12T08:45:03;8.70;99.90
12957;DHT22;6543;48.836;10.092;2023-04-12T08:47:31;8.90;99.90
12957;DHT22;6543;48.836;10.092;2023-04-12T08:49:59;8.90;99.90
12957;DHT22;6543;48.836;10.092;2023-04-12T08:52:33;9.00;99.90
12957;DHT22;6543;48.836;10.092;2023-04-12T08:55:02;9.00;99.90
12957;DHT22;6543;48.836;10.092;2023-04-12T08:57:30;9.00;99.90
12957;DHT22;6543;48.836;10.092;2023-04-12T08:59:59;8.90;99.90
12957;DHT22;6543;48.836;10.092;2023-04-12T09:02:26;8.90;99.90
12957;DHT22;6543;48.836;10.092;2023-04-12T09:04:54;8.80;99.90
12957;DHT22;6543;48.836;10.092;2023-04-12T09:07:22;8.90;99.90
12957;DHT22;6543;48.836;10.092;2023-04-12T09:09:54;8.90;99.90
12957;DHT22;6543;48.836;10.092;2023-04-12T09:12:21;8.90;99.90
12957;DHT22;6543;48.836;10.092;2023-04-12T09:15:04;10.30;99.90
12957;DHT22;6543;48.836;10.092;2023-04-12T09:17:33;8.90;99.90
12957;DHT22;6543;48.836;10.092;2023-04-12T09:20:01;9.00;99.90
12957;DHT22;6543;48.836;10.092;2023-04-12T09:22:32;8.90;99.90
12957;DHT22;6543;48.836;10.092;2023-04-12T09:25:02;8.90;99.90
12957;DHT22;6543;48.836;10.092;2023-04-12T09:27:44;8.90;99.90
12957;DHT22;6543;48.836;10.092;2023-04-12T09:30:14;9.00;99.90
12957;DHT22;6543;48.836;10.092;2023-04-12T09:32:41;9.00;99.90
12957;DHT22;6543;48.836;10.092;2023-04-12T09:35:08;9.10;99.90
12957;DHT22;6543;48.836;10.092;2023-04-12T09:37:35;9.20;99.90
12957;DHT22;6543;48.836;10.092;2023-04-12T09:40:06;9.20;99.90
12957;DHT22;6543;48.836;10.092;2023-04-12T09:42:34;9.20;99.90
12957;DHT22;6543;48.836;10.092;2023-04-12T09:45:19;9.20;99.90
12957;DHT22;6543;48.836;10.092;2023-04-12T09:47:46;9.20;99.90
12957;DHT22;6543;48.836;10.092;2023-04-12T09:50:19;9.30;99.90
12957;DHT22;6543;48.836;10.092;2023-04-12T09:52:46;9.30;99.90
12957;DHT22;6543;48.836;10.092;2023-04-12T09:55:16;9.20;99.90
12957;DHT22;6543;48.836;10.092;2023-04-12T09:57:44;9.30;99.90
12957;DHT22;6543;48.836;10.092;2023-04-12T10:00:13;9.30;99.90
12957;DHT22;6543;48.836;10.092;2023-04-12T10:02:43;9.30;99.90
12957;DHT22;6543;48.836;10.092;2023-04-12T10:05:12;11.20;99.90
12957;DHT22;6543;48.836;10.092;2023-04-12T10:07:41;9.40;99.90
12957;DHT22;6543;48.836;10.092;2023-04-12T10:10:09;9.40;99.90
12957;DHT22;6543;48.836;10.092;2023-04-12T10:12:39;9.40;99.90
12957;DHT22;6543;48.836;10.092;2023-04-12T10:15:08;9.50;99.90
12957;DHT22;6543;48.836;10.092;2023-04-12T10:17:41;9.60;99.90
12957;DHT22;6543;48.836;10.092;2023-04-12T10:20:10;9.80;99.90
12957;DHT22;6543;48.836;10.092;2023-04-12T10:22:38;9.80;99.90
12957;DHT22;6543;48.836;10.092;2023-04-12T10:25:09;9.90;99.90
12957;DHT22;6543;48.836;10.092;2023-04-12T10:27:40;10.00;99.90
12957;DHT22;6543;48.836;10.092;2023-04-12T10:30:21;10.10;99.90
12957;DHT22;6543;48.836;10.092;2023-04-12T10:33:01;10.20;99.90
12957;DHT22;6543;48.836;10.092;2023-04-12T10:35:53;10.10;99.90
12957;DHT22;6543;48.836;10.092;2023-04-12T10:38:21;10.20;99.90
12957;DHT22;6543;48.836;10.092;2023-04-12T10:41:13;10.30;99.90
12957;DHT22;6543;48.836;10.092;2023-04-12T10:43:42;10.20;99.90
12957;DHT22;6543;48.836;10.092;2023-04-12T10:49:10;10.20;99.90
12957;DHT22;6543;48.836;10.092;2023-04-12T10:51:38;10.40;99.90
12957;DHT22;6543;48.836;10.092;2023-04-12T10:54:30;10.40;99.90
12957;DHT22;6543;48.836;10.092;2023-04-12T10:57:00;10.40;99.90
12957;DHT22;6543;48.836;10.092;2023-04-12T10:59:50;10.60;99.90
12957;DHT22;6543;48.836;10.092;2023-04-12T11:02:17;10.50;99.90
12957;DHT22;6543;48.836;10.092;2023-04-12T11:05:02;10.50;99.90
12957;DHT22;6543;48.836;10.092;2023-04-12T11:07:37;10.70;99.90
12957;DHT22;6543;48.836;10.092;2023-04-12T11:10:11;10.80;99.90
12957;DHT22;6543;48.836;10.092;2023-04-12T11:12:41;10.90;99.90
12957;DHT22;6543;48.836;10.092;2023-04-12T11:15:15;10.90;99.90
12957;DHT22;6543;48.836;10.092;2023-04-12T11:17:52;11.20;99.90
12957;DHT22;6543;48.836;10.092;2023-04-12T11:20:20;11.10;99.90
12957;DHT22;6543;48.836;10.092;2023-04-12T11:22:48;11.30;99.90
12957;DHT22;6543;48.836;10.092;2023-04-12T11:25:16;11.10;99.90
12957;DHT22;6543;48.836;10.092;2023-04-12T11:27:48;11.10;99.90
12957;DHT22;6543;48.836;10.092;2023-04-12T11:30:17;11.50;99.90
12957;DHT22;6543;48.836;10.092;2023-04-12T11:32:44;11.10;99.90
12957;DHT22;6543;48.836;10.092;2023-04-12T11:35:13;11.20;99.90
12957;DHT22;6543;48.836;10.092;2023-04-12T11:37:41;11.20;99.90
12957;DHT22;6543;48.836;10.092;2023-04-12T11:40:08;11.30;99.90
12957;DHT22;6543;48.836;10.092;2023-04-12T11:42:38;11.50;99.90
12957;DHT22;6543;48.836;10.092;2023-04-12T11:45:07;12.50;99.90
12957;DHT22;6543;48.836;10.092;2023-04-12T11:47:41;11.50;99.90
12957;DHT22;6543;48.836;10.092;2023-04-12T11:50:08;11.50;99.90
12957;DHT22;6543;48.836;10.092;2023-04-12T11:52:36;13.20;99.90
12957;DHT22;6543;48.836;10.092;2023-04-12T11:55:04;11.90;99.90
12957;DHT22;6543;48.836;10.092;2023-04-12T11:57:33;12.10;99.90
12957;DHT22;6543;48.836;10.092;2023-04-12T12:00:00;12.30;99.90
12957;DHT22;6543;48.836;10.092;2023-04-12T12:02:32;12.40;99.90
12957;DHT22;6543;48.836;10.092;2023-04-12T12:05:01;12.50;99.90
12957;DHT22;6543;48.836;10.092;2023-04-12T12:07:28;12.40;99.90
12957;DHT22;6543;48.836;10.092;2023-04-12T12:09:56;12.20;99.90
12957;DHT22;6543;48.836;10.092;2023-04-12T12:12:23;12.30;99.90
12957;DHT22;6543;48.836;10.092;2023-04-12T12:14:50;12.10;99.90
12957;DHT22;6543;48.836;10.092;2023-04-12T12:17:17;12.20;99.90
12957;DHT22;6543;48.836;10.092;2023-04-12T12:19:45;11.90;99.90
12957;DHT22;6543;48.836;10.092;2023-04-12T12:22:14;12.00;99.90
12957;DHT22;6543;48.836;10.092;2023-04-12T12:24:46;11.90;99.90
12957;DHT22;6543;48.836;10.092;2023-04-12T12:27:16;11.90;99.90
12957;DHT22;6543;48.836;10.092;2023-04-12T12:29:43;11.80;99.90
12957;DHT22;6543;48.836;10.092;2023-04-12T12:32:11;11.40;99.90
12957;DHT22;6543;48.836;10.092;2023-04-12T12:34:39;11.90;99.90
12957;DHT22;6543;48.836;10.092;2023-04-12T12:37:07;12.40;99.90
12957;DHT22;6543;48.836;10.092;2023-04-12T12:39:36;12.00;99.90
12957;DHT22;6543;48.836;10.092;2023-04-12T12:42:04;12.10;99.90
12957;DHT22;6543;48.836;10.092;2023-04-12T12:44:31;12.30;99.90
12957;DHT22;6543;48.836;10.092;2023-04-12T12:46:59;12.30;99.90
12957;DHT22;6543;48.836;10.092;2023-04-12T12:49:26;12.30;99.90
12957;DHT22;6543;48.836;10.092;2023-04-12T12:51:53;12.30;99.90
12957;DHT22;6543;48.836;10.092;2023-04-12T12:54:20;12.20;99.90
12957;DHT22;6543;48.836;10.092;2023-04-12T12:56:48;12.30;99.90
12957;DHT22;6543;48.836;10.092;2023-04-12T12:59:15;12.30;99.90
12957;DHT22;6543;48.836;10.092;2023-04-12T13:01:42;12.40;99.90
12957;DHT22;6543;48.836;10.092;2023-04-12T13:04:09;12.40;99.90
12957;DHT22;6543;48.836;10.092;2023-04-12T13:06:36;12.50;99.90
12957;DHT22;6543;48.836;10.092;2023-04-12T13:09:04;12.60;99.90
12957;DHT22;6543;48.836;10.092;2023-04-12T13:11:31;12.60;99.90
12957;DHT22;6543;48.836;10.092;2023-04-12T13:14:00;14.00;99.90
12957;DHT22;6543;48.836;10.092;2023-04-12T13:16:29;13.40;99.90
12957;DHT22;6543;48.836;10.092;2023-04-12T13:18:57;13.00;99.90
12957;DHT22;6543;48.836;10.092;2023-04-12T13:21:23;13.60;99.90
12957;DHT22;6543;48.836;10.092;2023-04-12T13:23:51;13.50;99.90
12957;DHT22;6543;48.836;10.092;2023-04-12T13:26:18;13.90;99.90
12957;DHT22;6543;48.836;10.092;2023-04-12T13:28:45;14.10;99.90
12957;DHT22;6543;48.836;10.092;2023-04-12T13:31:13;14.80;99.90
12957;DHT22;6543;48.836;10.092;2023-04-12T13:33:40;14.20;99.90
12957;DHT22;6543;48.836;10.092;2023-04-12T13:36:08;14.10;99.90
12957;DHT22;6543;48.836;10.092;2023-04-12T13:38:35;14.10;99.90
12957;DHT22;6543;48.836;10.092;2023-04-12T13:41:01;14.00;99.90
12957;DHT22;6543;48.836;10.092;2023-04-12T13:43:28;14.00;99.90
12957;DHT22;6543;48.836;10.092;2023-04-12T13:45:55;14.10;99.90
12957;DHT22;6543;48.836;10.092;2023-04-12T13:48:23;13.90;99.90
12957;DHT22;6543;48.836;10.092;2023-04-12T13:50:50;13.90;99.90
12957;DHT22;6543;48.836;10.092;2023-04-12T13:53:17;14.10;99.90
12957;DHT22;6543;48.836;10.092;2023-04-12T13:55:44;14.20;99.90
12957;DHT22;6543;48.836;10.092;2023-04-12T13:58:14;14.30;99.90
12957;DHT22;6543;48.836;10.092;2023-04-12T14:00:41;14.10;99.90
12957;DHT22;6543;48.836;10.092;2023-04-12T14:03:10;13.90;99.90
12957;DHT22;6543;48.836;10.092;2023-04-12T14:05:39;13.80;99.90
12957;DHT22;6543;48.836;10.092;2023-04-12T14:08:06;13.70;99.90
12957;DHT22;6543;48.836;10.092;2023-04-12T14:10:32;13.60;99.90
12957;DHT22;6543;48.836;10.092;2023-04-12T14:12:59;13.50;99.90
12957;DHT22;6543;48.836;10.092;2023-04-12T14:15:26;13.50;99.90
12957;DHT22;6543;48.836;10.092;2023-04-12T14:17:53;13.40;99.90
12957;DHT22;6543;48.836;10.092;2023-04-12T14:20:20;13.30;99.90
12957;DHT22;6543;48.836;10.092;2023-04-12T14:22:49;13.30;99.90
12957;DHT22;6543;48.836;10.092;2023-04-12T14:25:17;13.30;99.90
12957;DHT22;6543;48.836;10.092;2023-04-12T14:27:43;13.20;99.90
12957;DHT22;6543;48.836;10.092;2023-04-12T14:30:11;13.90;99.90
12957;DHT22;6543;48.836;10.092;2023-04-12T14:32:38;11.40;99.90
12957;DHT22;6543;48.836;10.092;2023-04-12T14:35:05;13.20;99.90
12957;DHT22;6543;48.836;10.092;2023-04-12T14:37:33;13.20;99.90
12957;DHT22;6543;48.836;10.092;2023-04-12T14:40:02;13.30;99.90
12957;DHT22;6543;48.836;10.092;2023-04-12T14:42:32;13.60;99.90
12957;DHT22;6543;48.836;10.092;2023-04-12T14:45:00;14.50;99.90
12957;DHT22;6543;48.836;10.092;2023-04-12T14:47:26;14.20;99.90
12957;DHT22;6543;48.836;10.092;2023-04-12T14:49:53;13.70;99.90
12957;DHT22;6543;48.836;10.092;2023-04-12T14:52:20;13.60;99.90
12957;DHT22;6543;48.836;10.092;2023-04-12T14:54:47;13.40;99.90
12957;DHT22;6543;48.836;10.092;2023-04-12T14:57:15;13.30;99.90
12957;DHT22;6543;48.836;10.092;2023-04-12T14:59:44;13.20;99.90
12957;DHT22;6543;48.836;10.092;2023-04-12T15:02:11;13.20;99.90
12957;DHT22;6543;48.836;10.092;2023-04-12T15:04:37;13.30;99.90
12957;DHT22;6543;48.836;10.092;2023-04-12T15:07:04;13.30;99.90
12957;DHT22;6543;48.836;10.092;2023-04-12T15:09:31;13.50;99.90
12957;DHT22;6543;48.836;10.092;2023-04-12T15:11:58;13.40;99.90
12957;DHT22;6543;48.836;10.092;2023-04-12T15:14:27;13.40;99.90
12957;DHT22;6543;48.836;10.092;2023-04-12T15:16:54;14.80;99.90
12957;DHT22;6543;48.836;10.092;2023-04-12T15:19:21;13.40;99.90
12957;DHT22;6543;48.836;10.092;2023-04-12T15:21:49;13.40;99.90
12957;DHT22;6543;48.836;10.092;2023-04-12T15:24:16;13.60;99.90
12957;DHT22;6543;48.836;10.092;2023-04-12T15:26:43;14.50;99.90
12957;DHT22;6543;48.836;10.092;2023-04-12T15:29:13;13.80;99.90
12957;DHT22;6543;48.836;10.092;2023-04-12T15:31:41;13.80;99.90
12957;DHT22;6543;48.836;10.092;2023-04-12T15:34:09;13.70;99.90
12957;DHT22;6543;48.836;10.092;2023-04-12T15:36:38;15.00;99.90
12957;DHT22;6543;48.836;10.092;2023-04-12T15:39:07;13.70;99.90
12957;DHT22;6543;48.836;10.092;2023-04-12T15:41:36;13.80;99.90
12957;DHT22;6543;48.836;10.092;2023-04-12T15:44:04;13.80;99.90
12957;DHT22;6543;48.836;10.092;2023-04-12T15:46:31;13.80;99.90
12957;DHT22;6543;48.836;10.092;2023-04-12T15:48:59;14.00;99.90
12957;DHT22;6543;48.836;10.092;2023-04-12T15:51:27;15.90;99.90
12957;DHT22;6543;48.836;10.092;2023-04-12T15:53:54;14.20;99.90
12957;DHT22;6543;48.836;10.092;2023-04-12T15:56:21;14.70;99.90
12957;DHT22;6543;48.836;10.092;2023-04-12T15:58:49;14.60;99.90
12957;DHT22;6543;48.836;10.092;2023-04-12T16:01:17;14.70;99.90
12957;DHT22;6543;48.836;10.092;2023-04-12T16:03:44;14.50;99.90
12957;DHT22;6543;48.836;10.092;2023-04-12T16:06:15;14.30;99.90
12957;DHT22;6543;48.836;10.092;2023-04-12T16:08:46;13.80;99.90